sensor_id;sensor_type;location;lat;lon;timestamp;P1;durP1;ratioP1;P2;durP2;ratioP2
80425;SDS011;69766;51.476;5.704;2024-03-29T00:00:07;2.88;;;0.90;;
80425;SDS011;69766;51.476;5.704;2024-03-29T00:02:38;2.42;;;0.70;;
80425;SDS011;69766;51.476;5.704;2024-03-29T00:05:06;2.03;;;0.73;;
80425;SDS011;69766;51.476;5.704;2024-03-29T00:07:33;3.40;;;0.60;;
80425;SDS011;69766;51.476;5.704;2024-03-29T00:10:05;1.45;;;0.60;;
80425;SDS011;69766;51.476;5.704;2024-03-29T00:12:33;3.28;;;1.00;;
80425;SDS011;69766;51.476;5.704;2024-03-29T00:15:00;4.18;;;0.73;;
80425;SDS011;69766;51.476;5.704;2024-03-29T00:17:25;4.57;;;0.68;;
80425;SDS011;69766;51.476;5.704;2024-03-29T00:19:51;3.55;;;0.70;;
80425;SDS011;69766;51.476;5.704;2024-03-29T00:22:17;6.57;;;0.77;;
80425;SDS011;69766;51.476;5.704;2024-03-29T00:24:43;4.18;;;0.60;;
80425;SDS011;69766;51.476;5.704;2024-03-29T00:27:14;2.78;;;0.68;;
80425;SDS011;69766;51.476;5.704;2024-03-29T00:29:40;3.92;;;0.68;;
80425;SDS011;69766;51.476;5.704;2024-03-29T00:32:12;5.05;;;0.80;;
80425;SDS011;69766;51.476;5.704;2024-03-29T00:34:41;3.97;;;0.60;;
80425;SDS011;69766;51.476;5.704;2024-03-29T00:37:09;3.95;;;0.70;;
80425;SDS011;69766;51.476;5.704;2024-03-29T00:39:34;5.07;;;0.73;;
80425;SDS011;69766;51.476;5.704;2024-03-29T00:42:03;3.83;;;0.80;;
80425;SDS011;69766;51.476;5.704;2024-03-29T00:44:37;6.10;;;1.45;;
80425;SDS011;69766;51.476;5.704;2024-03-29T00:47:08;6.38;;;0.80;;
80425;SDS011;69766;51.476;5.704;2024-03-29T00:49:38;3.72;;;1.27;;
80425;SDS011;69766;51.476;5.704;2024-03-29T00:52:07;6.10;;;1.30;;
80425;SDS011;69766;51.476;5.704;2024-03-29T00:54:36;2.38;;;0.70;;
80425;SDS011;69766;51.476;5.704;2024-03-29T00:57:02;4.57;;;1.08;;
80425;SDS011;69766;51.476;5.704;2024-03-29T00:59:28;5.63;;;1.08;;
80425;SDS011;69766;51.476;5.704;2024-03-29T01:01:58;3.38;;;0.68;;
80425;SDS011;69766;51.476;5.704;2024-03-29T01:04:27;3.72;;;0.82;;
80425;SDS011;69766;51.476;5.704;2024-03-29T01:06:53;5.63;;;1.25;;
80425;SDS011;69766;51.476;5.704;2024-03-29T01:09:22;7.10;;;1.10;;
80425;SDS011;69766;51.476;5.704;2024-03-29T01:11:49;1.88;;;0.70;;
80425;SDS011;69766;51.476;5.704;2024-03-29T01:14:16;5.75;;;0.93;;
80425;SDS011;69766;51.476;5.704;2024-03-29T01:16:42;3.00;;;0.73;;
80425;SDS011;69766;51.476;5.704;2024-03-29T01:19:10;5.60;;;0.93;;
80425;SDS011;69766;51.476;5.704;2024-03-29T01:21:41;3.65;;;0.82;;
80425;SDS011;69766;51.476;5.704;2024-03-29T01:24:07;3.88;;;1.00;;
80425;SDS011;69766;51.476;5.704;2024-03-29T01:26:38;4.30;;;0.98;;
80425;SDS011;69766;51.476;5.704;2024-03-29T01:29:04;4.80;;;0.88;;
80425;SDS011;69766;51.476;5.704;2024-03-29T01:31:31;3.75;;;0.52;;
80425;SDS011;69766;51.476;5.704;2024-03-29T01:34:00;4.05;;;0.85;;
80425;SDS011;69766;51.476;5.704;2024-03-29T01:36:27;7.28;;;1.00;;
80425;SDS011;69766;51.476;5.704;2024-03-29T01:38:54;3.92;;;0.80;;
80425;SDS011;69766;51.476;5.704;2024-03-29T01:41:24;4.85;;;0.90;;
80425;SDS011;69766;51.476;5.704;2024-03-29T01:43:53;4.18;;;0.77;;
80425;SDS011;69766;51.476;5.704;2024-03-29T01:46:20;4.00;;;1.13;;
80425;SDS011;69766;51.476;5.704;2024-03-29T01:48:48;4.03;;;0.60;;
80425;SDS011;69766;51.476;5.704;2024-03-29T01:51:17;2.78;;;0.70;;
80425;SDS011;69766;51.476;5.704;2024-03-29T01:53:44;5.07;;;0.80;;
80425;SDS011;69766;51.476;5.704;2024-03-29T01:58:43;2.55;;;0.98;;
80425;SDS011;69766;51.476;5.704;2024-03-29T02:01:11;4.93;;;0.73;;
80425;SDS011;69766;51.476;5.704;2024-03-29T02:03:38;3.88;;;0.43;;
80425;SDS011;69766;51.476;5.704;2024-03-29T02:06:04;2.35;;;0.68;;
80425;SDS011;69766;51.476;5.704;2024-03-29T02:08:32;2.65;;;0.77;;
80425;SDS011;69766;51.476;5.704;2024-03-29T02:10:59;5.68;;;0.70;;
80425;SDS011;69766;51.476;5.704;2024-03-29T02:13:25;2.72;;;0.82;;
80425;SDS011;69766;51.476;5.704;2024-03-29T02:15:54;1.05;;;0.50;;
80425;SDS011;69766;51.476;5.704;2024-03-29T02:18:19;2.95;;;1.35;;
80425;SDS011;69766;51.476;5.704;2024-03-29T02:20:49;2.85;;;0.90;;
80425;SDS011;69766;51.476;5.704;2024-03-29T02:23:19;3.72;;;0.85;;
80425;SDS011;69766;51.476;5.704;2024-03-29T02:25:49;5.22;;;1.02;;
80425;SDS011;69766;51.476;5.704;2024-03-29T02:28:15;5.20;;;0.85;;
80425;SDS011;69766;51.476;5.704;2024-03-29T02:30:46;3.67;;;0.80;;
80425;SDS011;69766;51.476;5.704;2024-03-29T02:33:15;2.53;;;0.50;;
80425;SDS011;69766;51.476;5.704;2024-03-29T02:35:46;2.78;;;0.73;;
80425;SDS011;69766;51.476;5.704;2024-03-29T02:38:12;4.38;;;0.60;;
80425;SDS011;69766;51.476;5.704;2024-03-29T02:40:37;3.25;;;0.88;;
80425;SDS011;69766;51.476;5.704;2024-03-29T02:43:03;4.10;;;0.85;;
80425;SDS011;69766;51.476;5.704;2024-03-29T02:45:29;3.60;;;0.80;;
80425;SDS011;69766;51.476;5.704;2024-03-29T02:47:55;2.95;;;0.47;;
80425;SDS011;69766;51.476;5.704;2024-03-29T02:50:27;3.90;;;0.70;;
80425;SDS011;69766;51.476;5.704;2024-03-29T02:52:54;4.63;;;0.70;;
80425;SDS011;69766;51.476;5.704;2024-03-29T02:55:20;3.92;;;0.70;;
80425;SDS011;69766;51.476;5.704;2024-03-29T02:57:46;1.90;;;0.68;;
80425;SDS011;69766;51.476;5.704;2024-03-29T03:00:13;4.50;;;0.90;;
80425;SDS011;69766;51.476;5.704;2024-03-29T03:02:42;3.53;;;0.60;;
80425;SDS011;69766;51.476;5.704;2024-03-29T03:05:08;4.57;;;0.80;;
80425;SDS011;69766;51.476;5.704;2024-03-29T03:07:34;2.38;;;0.70;;
80425;SDS011;69766;51.476;5.704;2024-03-29T03:10:21;1.80;;;0.57;;
80425;SDS011;69766;51.476;5.704;2024-03-29T03:13:06;2.88;;;0.80;;
80425;SDS011;69766;51.476;5.704;2024-03-29T03:15:33;3.17;;;0.75;;
80425;SDS011;69766;51.476;5.704;2024-03-29T03:18:02;1.80;;;0.88;;
80425;SDS011;69766;51.476;5.704;2024-03-29T03:20:27;4.10;;;0.95;;
80425;SDS011;69766;51.476;5.704;2024-03-29T03:22:55;3.25;;;0.65;;
80425;SDS011;69766;51.476;5.704;2024-03-29T03:25:22;4.72;;;0.68;;
80425;SDS011;69766;51.476;5.704;2024-03-29T03:27:50;5.15;;;1.25;;
80425;SDS011;69766;51.476;5.704;2024-03-29T03:30:16;1.75;;;0.50;;
80425;SDS011;69766;51.476;5.704;2024-03-29T03:32:42;4.57;;;0.73;;
80425;SDS011;69766;51.476;5.704;2024-03-29T03:35:08;1.70;;;0.70;;
80425;SDS011;69766;51.476;5.704;2024-03-29T03:37:33;2.45;;;0.57;;
80425;SDS011;69766;51.476;5.704;2024-03-29T03:39:59;3.50;;;0.50;;
80425;SDS011;69766;51.476;5.704;2024-03-29T03:42:32;1.33;;;0.40;;
80425;SDS011;69766;51.476;5.704;2024-03-29T03:44:58;3.92;;;0.50;;
80425;SDS011;69766;51.476;5.704;2024-03-29T03:47:24;2.63;;;0.47;;
80425;SDS011;69766;51.476;5.704;2024-03-29T03:49:53;1.02;;;0.32;;
80425;SDS011;69766;51.476;5.704;2024-03-29T03:52:19;3.50;;;0.60;;
80425;SDS011;69766;51.476;5.704;2024-03-29T03:54:50;2.20;;;0.85;;
80425;SDS011;69766;51.476;5.704;2024-03-29T03:57:18;2.08;;;0.60;;
80425;SDS011;69766;51.476;5.704;2024-03-29T03:59:48;2.38;;;0.50;;
80425;SDS011;69766;51.476;5.704;2024-03-29T04:02:27;2.33;;;0.55;;
80425;SDS011;69766;51.476;5.704;2024-03-29T04:05:06;3.85;;;0.63;;
80425;SDS011;69766;51.476;5.704;2024-03-29T04:07:36;4.07;;;0.90;;
80425;SDS011;69766;51.476;5.704;2024-03-29T04:10:06;1.90;;;0.40;;
80425;SDS011;69766;51.476;5.704;2024-03-29T04:12:38;3.88;;;0.50;;
80425;SDS011;69766;51.476;5.704;2024-03-29T04:15:07;2.17;;;0.70;;
80425;SDS011;69766;51.476;5.704;2024-03-29T04:17:35;3.58;;;0.73;;
80425;SDS011;69766;51.476;5.704;2024-03-29T04:20:08;3.60;;;0.50;;
80425;SDS011;69766;51.476;5.704;2024-03-29T04:23:10;3.35;;;0.80;;
80425;SDS011;69766;51.476;5.704;2024-03-29T04:25:38;1.83;;;0.50;;
80425;SDS011;69766;51.476;5.704;2024-03-29T04:28:03;2.08;;;0.60;;
80425;SDS011;69766;51.476;5.704;2024-03-29T04:30:29;3.15;;;0.60;;
80425;SDS011;69766;51.476;5.704;2024-03-29T04:33:02;2.35;;;0.63;;
80425;SDS011;69766;51.476;5.704;2024-03-29T04:35:59;2.28;;;1.15;;
80425;SDS011;69766;51.476;5.704;2024-03-29T04:38:40;2.78;;;0.80;;
80425;SDS011;69766;51.476;5.704;2024-03-29T04:41:12;2.58;;;0.60;;
80425;SDS011;69766;51.476;5.704;2024-03-29T04:43:39;4.22;;;0.63;;
80425;SDS011;69766;51.476;5.704;2024-03-29T04:46:10;1.85;;;0.85;;
80425;SDS011;69766;51.476;5.704;2024-03-29T04:48:40;5.18;;;1.02;;
80425;SDS011;69766;51.476;5.704;2024-03-29T04:51:06;3.83;;;0.80;;
80425;SDS011;69766;51.476;5.704;2024-03-29T04:53:36;4.15;;;1.00;;
80425;SDS011;69766;51.476;5.704;2024-03-29T04:56:10;2.70;;;0.90;;
80425;SDS011;69766;51.476;5.704;2024-03-29T04:58:43;4.55;;;1.08;;
80425;SDS011;69766;51.476;5.704;2024-03-29T05:01:13;5.22;;;1.83;;
80425;SDS011;69766;51.476;5.704;2024-03-29T05:03:39;3.40;;;1.10;;
80425;SDS011;69766;51.476;5.704;2024-03-29T05:06:05;6.45;;;1.23;;
80425;SDS011;69766;51.476;5.704;2024-03-29T05:08:35;4.68;;;1.17;;
80425;SDS011;69766;51.476;5.704;2024-03-29T05:11:09;4.22;;;1.27;;
80425;SDS011;69766;51.476;5.704;2024-03-29T05:13:39;3.13;;;1.23;;
80425;SDS011;69766;51.476;5.704;2024-03-29T05:16:05;3.30;;;1.00;;
80425;SDS011;69766;51.476;5.704;2024-03-29T05:18:31;4.05;;;0.93;;
80425;SDS011;69766;51.476;5.704;2024-03-29T05:20:56;2.53;;;0.73;;
80425;SDS011;69766;51.476;5.704;2024-03-29T05:23:22;3.92;;;1.35;;
80425;SDS011;69766;51.476;5.704;2024-03-29T05:25:48;4.80;;;1.00;;
80425;SDS011;69766;51.476;5.704;2024-03-29T05:28:14;2.63;;;0.90;;
80425;SDS011;69766;51.476;5.704;2024-03-29T05:30:40;3.10;;;0.75;;
80425;SDS011;69766;51.476;5.704;2024-03-29T05:33:06;3.35;;;1.05;;
80425;SDS011;69766;51.476;5.704;2024-03-29T05:35:34;3.60;;;1.33;;
80425;SDS011;69766;51.476;5.704;2024-03-29T05:38:00;2.88;;;0.80;;
80425;SDS011;69766;51.476;5.704;2024-03-29T05:40:25;2.75;;;0.80;;
80425;SDS011;69766;51.476;5.704;2024-03-29T05:42:52;1.88;;;0.90;;
80425;SDS011;69766;51.476;5.704;2024-03-29T05:45:30;2.58;;;0.73;;
80425;SDS011;69766;51.476;5.704;2024-03-29T05:47:57;2.55;;;0.90;;
80425;SDS011;69766;51.476;5.704;2024-03-29T05:50:24;5.57;;;1.20;;
80425;SDS011;69766;51.476;5.704;2024-03-29T05:52:53;4.40;;;1.00;;
80425;SDS011;69766;51.476;5.704;2024-03-29T05:55:18;3.33;;;1.00;;
80425;SDS011;69766;51.476;5.704;2024-03-29T05:57:44;2.13;;;1.00;;
80425;SDS011;69766;51.476;5.704;2024-03-29T06:00:11;7.38;;;1.27;;
80425;SDS011;69766;51.476;5.704;2024-03-29T06:02:41;3.05;;;1.20;;
80425;SDS011;69766;51.476;5.704;2024-03-29T06:05:12;7.20;;;1.40;;
80425;SDS011;69766;51.476;5.704;2024-03-29T06:07:56;1.90;;;1.02;;
80425;SDS011;69766;51.476;5.704;2024-03-29T06:13:12;5.82;;;1.73;;
80425;SDS011;69766;51.476;5.704;2024-03-29T06:16:02;2.55;;;1.42;;
80425;SDS011;69766;51.476;5.704;2024-03-29T06:18:47;3.70;;;1.40;;
80425;SDS011;69766;51.476;5.704;2024-03-29T06:21:17;4.28;;;1.60;;
80425;SDS011;69766;51.476;5.704;2024-03-29T06:23:51;2.45;;;1.13;;
80425;SDS011;69766;51.476;5.704;2024-03-29T06:26:16;4.07;;;1.58;;
80425;SDS011;69766;51.476;5.704;2024-03-29T06:28:42;3.85;;;1.42;;
80425;SDS011;69766;51.476;5.704;2024-03-29T06:31:08;8.02;;;1.60;;
80425;SDS011;69766;51.476;5.704;2024-03-29T06:33:37;3.67;;;1.45;;
80425;SDS011;69766;51.476;5.704;2024-03-29T06:36:21;5.07;;;1.40;;
80425;SDS011;69766;51.476;5.704;2024-03-29T06:38:50;2.97;;;1.30;;
80425;SDS011;69766;51.476;5.704;2024-03-29T06:41:17;5.43;;;1.33;;
80425;SDS011;69766;51.476;5.704;2024-03-29T06:43:48;4.13;;;1.25;;
80425;SDS011;69766;51.476;5.704;2024-03-29T06:46:18;6.68;;;1.40;;
80425;SDS011;69766;51.476;5.704;2024-03-29T06:48:47;2.17;;;1.25;;
80425;SDS011;69766;51.476;5.704;2024-03-29T06:51:17;4.82;;;1.40;;
80425;SDS011;69766;51.476;5.704;2024-03-29T06:53:51;7.50;;;1.85;;
80425;SDS011;69766;51.476;5.704;2024-03-29T06:56:19;1.95;;;1.13;;
80425;SDS011;69766;51.476;5.704;2024-03-29T06:58:47;2.63;;;1.42;;
80425;SDS011;69766;51.476;5.704;2024-03-29T07:01:13;3.53;;;1.40;;
80425;SDS011;69766;51.476;5.704;2024-03-29T07:03:41;3.45;;;1.17;;
80425;SDS011;69766;51.476;5.704;2024-03-29T07:06:09;3.08;;;1.42;;
80425;SDS011;69766;51.476;5.704;2024-03-29T07:08:38;3.35;;;1.40;;
80425;SDS011;69766;51.476;5.704;2024-03-29T07:11:04;3.30;;;1.50;;
80425;SDS011;69766;51.476;5.704;2024-03-29T07:17:00;3.60;;;1.50;;
80425;SDS011;69766;51.476;5.704;2024-03-29T07:19:29;4.65;;;1.50;;
80425;SDS011;69766;51.476;5.704;2024-03-29T07:21:58;4.07;;;1.55;;
80425;SDS011;69766;51.476;5.704;2024-03-29T07:24:24;5.35;;;1.60;;
80425;SDS011;69766;51.476;5.704;2024-03-29T07:27:04;3.35;;;1.42;;
80425;SDS011;69766;51.476;5.704;2024-03-29T07:29:31;2.85;;;1.30;;
80425;SDS011;69766;51.476;5.704;2024-03-29T07:31:59;2.97;;;1.45;;
80425;SDS011;69766;51.476;5.704;2024-03-29T07:34:32;4.00;;;1.10;;
80425;SDS011;69766;51.476;5.704;2024-03-29T07:37:15;3.45;;;1.13;;
80425;SDS011;69766;51.476;5.704;2024-03-29T07:39:46;2.35;;;1.00;;
80425;SDS011;69766;51.476;5.704;2024-03-29T07:42:18;1.88;;;0.93;;
80425;SDS011;69766;51.476;5.704;2024-03-29T07:44:44;3.90;;;1.25;;
80425;SDS011;69766;51.476;5.704;2024-03-29T07:47:10;4.20;;;1.20;;
80425;SDS011;69766;51.476;5.704;2024-03-29T07:49:38;4.10;;;1.13;;
80425;SDS011;69766;51.476;5.704;2024-03-29T07:52:04;3.28;;;1.10;;
80425;SDS011;69766;51.476;5.704;2024-03-29T07:54:31;3.80;;;1.27;;
80425;SDS011;69766;51.476;5.704;2024-03-29T07:56:57;4.07;;;1.25;;
80425;SDS011;69766;51.476;5.704;2024-03-29T07:59:23;3.63;;;1.23;;
80425;SDS011;69766;51.476;5.704;2024-03-29T08:01:49;4.57;;;1.40;;
80425;SDS011;69766;51.476;5.704;2024-03-29T08:04:19;3.55;;;1.20;;
80425;SDS011;69766;51.476;5.704;2024-03-29T08:06:51;4.95;;;1.23;;
80425;SDS011;69766;51.476;5.704;2024-03-29T08:09:20;2.92;;;1.52;;
80425;SDS011;69766;51.476;5.704;2024-03-29T08:11:46;3.22;;;1.10;;
80425;SDS011;69766;51.476;5.704;2024-03-29T08:14:14;3.42;;;1.27;;
80425;SDS011;69766;51.476;5.704;2024-03-29T08:16:43;3.33;;;1.58;;
80425;SDS011;69766;51.476;5.704;2024-03-29T08:19:09;2.90;;;1.30;;
80425;SDS011;69766;51.476;5.704;2024-03-29T08:21:35;3.05;;;1.40;;
80425;SDS011;69766;51.476;5.704;2024-03-29T08:24:01;4.25;;;1.63;;
80425;SDS011;69766;51.476;5.704;2024-03-29T08:26:29;2.92;;;1.60;;
80425;SDS011;69766;51.476;5.704;2024-03-29T08:28:55;4.38;;;1.80;;
80425;SDS011;69766;51.476;5.704;2024-03-29T08:31:21;9.48;;;2.00;;
80425;SDS011;69766;51.476;5.704;2024-03-29T08:33:47;3.40;;;1.55;;
80425;SDS011;69766;51.476;5.704;2024-03-29T08:36:19;5.38;;;1.80;;
80425;SDS011;69766;51.476;5.704;2024-03-29T08:38:45;4.53;;;1.65;;
80425;SDS011;69766;51.476;5.704;2024-03-29T08:41:12;5.38;;;1.60;;
80425;SDS011;69766;51.476;5.704;2024-03-29T08:43:38;4.63;;;2.15;;
80425;SDS011;69766;51.476;5.704;2024-03-29T08:46:04;7.03;;;1.95;;
80425;SDS011;69766;51.476;5.704;2024-03-29T08:48:30;5.35;;;1.92;;
80425;SDS011;69766;51.476;5.704;2024-03-29T08:50:56;4.22;;;1.80;;
80425;SDS011;69766;51.476;5.704;2024-03-29T08:53:22;3.35;;;1.67;;
80425;SDS011;69766;51.476;5.704;2024-03-29T08:55:48;3.67;;;1.88;;
80425;SDS011;69766;51.476;5.704;2024-03-29T09:01:17;3.15;;;1.52;;
80425;SDS011;69766;51.476;5.704;2024-03-29T09:03:43;3.92;;;1.85;;
80425;SDS011;69766;51.476;5.704;2024-03-29T09:06:09;4.25;;;1.50;;
80425;SDS011;69766;51.476;5.704;2024-03-29T09:08:35;4.28;;;1.88;;
80425;SDS011;69766;51.476;5.704;2024-03-29T09:11:06;3.80;;;1.52;;
80425;SDS011;69766;51.476;5.704;2024-03-29T09:13:32;3.03;;;1.40;;
80425;SDS011;69766;51.476;5.704;2024-03-29T09:16:06;4.22;;;1.45;;
80425;SDS011;69766;51.476;5.704;2024-03-29T09:18:33;4.95;;;1.45;;
80425;SDS011;69766;51.476;5.704;2024-03-29T09:20:59;3.88;;;1.73;;
80425;SDS011;69766;51.476;5.704;2024-03-29T09:23:28;7.13;;;1.92;;
80425;SDS011;69766;51.476;5.704;2024-03-29T09:26:03;5.18;;;1.50;;
80425;SDS011;69766;51.476;5.704;2024-03-29T09:35:23;4.85;;;1.42;;
80425;SDS011;69766;51.476;5.704;2024-03-29T09:37:53;4.95;;;1.52;;
80425;SDS011;69766;51.476;5.704;2024-03-29T09:40:24;3.05;;;1.00;;
80425;SDS011;69766;51.476;5.704;2024-03-29T09:42:54;4.68;;;1.48;;
80425;SDS011;69766;51.476;5.704;2024-03-29T09:45:29;4.07;;;1.40;;
80425;SDS011;69766;51.476;5.704;2024-03-29T09:47:59;3.55;;;1.27;;
80425;SDS011;69766;51.476;5.704;2024-03-29T09:50:31;3.35;;;1.20;;
80425;SDS011;69766;51.476;5.704;2024-03-29T09:53:13;2.95;;;1.20;;
80425;SDS011;69766;51.476;5.704;2024-03-29T09:55:45;3.85;;;1.50;;
80425;SDS011;69766;51.476;5.704;2024-03-29T09:58:12;3.67;;;1.50;;
80425;SDS011;69766;51.476;5.704;2024-03-29T10:00:38;3.97;;;1.58;;
80425;SDS011;69766;51.476;5.704;2024-03-29T10:03:05;6.38;;;1.10;;
80425;SDS011;69766;51.476;5.704;2024-03-29T10:05:39;2.75;;;1.30;;
80425;SDS011;69766;51.476;5.704;2024-03-29T10:08:08;3.85;;;1.73;;
80425;SDS011;69766;51.476;5.704;2024-03-29T10:10:37;2.67;;;1.40;;
80425;SDS011;69766;51.476;5.704;2024-03-29T10:13:03;4.32;;;1.20;;
80425;SDS011;69766;51.476;5.704;2024-03-29T10:15:29;3.17;;;1.13;;
80425;SDS011;69766;51.476;5.704;2024-03-29T10:18:02;3.13;;;1.15;;
80425;SDS011;69766;51.476;5.704;2024-03-29T10:20:28;3.80;;;1.95;;
80425;SDS011;69766;51.476;5.704;2024-03-29T10:22:55;3.47;;;1.30;;
80425;SDS011;69766;51.476;5.704;2024-03-29T10:25:27;3.60;;;1.00;;
80425;SDS011;69766;51.476;5.704;2024-03-29T10:27:56;3.25;;;1.17;;
80425;SDS011;69766;51.476;5.704;2024-03-29T10:30:24;2.97;;;0.80;;
80425;SDS011;69766;51.476;5.704;2024-03-29T10:32:55;1.50;;;0.80;;
80425;SDS011;69766;51.476;5.704;2024-03-29T10:35:22;2.65;;;0.80;;
80425;SDS011;69766;51.476;5.704;2024-03-29T10:37:54;3.03;;;0.82;;
80425;SDS011;69766;51.476;5.704;2024-03-29T10:40:23;2.78;;;0.90;;
80425;SDS011;69766;51.476;5.704;2024-03-29T10:42:55;3.95;;;1.17;;
80425;SDS011;69766;51.476;5.704;2024-03-29T10:45:22;1.98;;;1.08;;
80425;SDS011;69766;51.476;5.704;2024-03-29T10:47:49;3.38;;;0.95;;
80425;SDS011;69766;51.476;5.704;2024-03-29T10:50:23;1.83;;;0.80;;
80425;SDS011;69766;51.476;5.704;2024-03-29T10:52:53;1.17;;;0.70;;
80425;SDS011;69766;51.476;5.704;2024-03-29T10:55:20;2.47;;;0.90;;
80425;SDS011;69766;51.476;5.704;2024-03-29T10:57:46;1.70;;;0.60;;
80425;SDS011;69766;51.476;5.704;2024-03-29T11:00:21;2.47;;;0.80;;
80425;SDS011;69766;51.476;5.704;2024-03-29T11:02:51;0.60;;;0.50;;
80425;SDS011;69766;51.476;5.704;2024-03-29T11:05:50;2.80;;;0.90;;
80425;SDS011;69766;51.476;5.704;2024-03-29T11:08:23;1.27;;;0.57;;
80425;SDS011;69766;51.476;5.704;2024-03-29T11:10:53;2.05;;;0.60;;
80425;SDS011;69766;51.476;5.704;2024-03-29T11:16:04;2.00;;;0.70;;
80425;SDS011;69766;51.476;5.704;2024-03-29T11:18:30;2.08;;;0.80;;
80425;SDS011;69766;51.476;5.704;2024-03-29T11:21:00;2.22;;;0.70;;
80425;SDS011;69766;51.476;5.704;2024-03-29T11:23:31;2.67;;;0.70;;
80425;SDS011;69766;51.476;5.704;2024-03-29T11:25:57;1.60;;;0.73;;
80425;SDS011;69766;51.476;5.704;2024-03-29T11:28:30;1.63;;;0.60;;
80425;SDS011;69766;51.476;5.704;2024-03-29T11:31:06;0.80;;;0.43;;
80425;SDS011;69766;51.476;5.704;2024-03-29T11:33:34;1.60;;;0.60;;
80425;SDS011;69766;51.476;5.704;2024-03-29T11:36:20;3.60;;;0.80;;
80425;SDS011;69766;51.476;5.704;2024-03-29T11:38:49;1.50;;;0.60;;
80425;SDS011;69766;51.476;5.704;2024-03-29T11:41:19;2.27;;;0.70;;
80425;SDS011;69766;51.476;5.704;2024-03-29T11:43:48;0.70;;;0.50;;
80425;SDS011;69766;51.476;5.704;2024-03-29T11:46:18;1.10;;;0.40;;
80425;SDS011;69766;51.476;5.704;2024-03-29T11:48:44;0.35;;;0.22;;
80425;SDS011;69766;51.476;5.704;2024-03-29T11:51:25;0.98;;;0.30;;
80425;SDS011;69766;51.476;5.704;2024-03-29T11:53:51;1.27;;;0.30;;
80425;SDS011;69766;51.476;5.704;2024-03-29T11:56:17;2.47;;;0.30;;
80425;SDS011;69766;51.476;5.704;2024-03-29T11:58:43;2.17;;;0.30;;
80425;SDS011;69766;51.476;5.704;2024-03-29T12:01:15;0.30;;;0.20;;
80425;SDS011;69766;51.476;5.704;2024-03-29T12:03:42;0.50;;;0.20;;
80425;SDS011;69766;51.476;5.704;2024-03-29T12:06:09;1.40;;;0.30;;
80425;SDS011;69766;51.476;5.704;2024-03-29T12:08:43;0.52;;;0.15;;
80425;SDS011;69766;51.476;5.704;2024-03-29T12:11:09;2.42;;;0.30;;
80425;SDS011;69766;51.476;5.704;2024-03-29T12:13:35;0.60;;;0.30;;
80425;SDS011;69766;51.476;5.704;2024-03-29T12:16:01;1.05;;;0.20;;
80425;SDS011;69766;51.476;5.704;2024-03-29T12:18:28;1.40;;;0.30;;
80425;SDS011;69766;51.476;5.704;2024-03-29T12:20:57;1.45;;;0.32;;
80425;SDS011;69766;51.476;5.704;2024-03-29T12:23:29;0.50;;;0.30;;
80425;SDS011;69766;51.476;5.704;2024-03-29T12:25:57;0.73;;;0.30;;
80425;SDS011;69766;51.476;5.704;2024-03-29T12:28:23;0.75;;;0.22;;
80425;SDS011;69766;51.476;5.704;2024-03-29T12:30:50;0.75;;;0.30;;
80425;SDS011;69766;51.476;5.704;2024-03-29T12:33:18;0.57;;;0.30;;
80425;SDS011;69766;51.476;5.704;2024-03-29T12:35:49;1.08;;;0.40;;
80425;SDS011;69766;51.476;5.704;2024-03-29T12:38:19;0.57;;;0.30;;
80425;SDS011;69766;51.476;5.704;2024-03-29T12:40:49;0.70;;;0.30;;
80425;SDS011;69766;51.476;5.704;2024-03-29T12:43:19;2.30;;;0.30;;
80425;SDS011;69766;51.476;5.704;2024-03-29T12:45:46;0.85;;;0.30;;
80425;SDS011;69766;51.476;5.704;2024-03-29T12:48:14;1.17;;;0.38;;
80425;SDS011;69766;51.476;5.704;2024-03-29T12:50:41;1.58;;;0.55;;
80425;SDS011;69766;51.476;5.704;2024-03-29T12:53:09;1.05;;;0.30;;
80425;SDS011;69766;51.476;5.704;2024-03-29T12:55:37;0.93;;;0.50;;
80425;SDS011;69766;51.476;5.704;2024-03-29T12:58:11;1.55;;;0.38;;
80425;SDS011;69766;51.476;5.704;2024-03-29T13:00:43;1.35;;;0.40;;
80425;SDS011;69766;51.476;5.704;2024-03-29T13:03:09;1.58;;;0.40;;
80425;SDS011;69766;51.476;5.704;2024-03-29T13:05:35;1.45;;;0.43;;
80425;SDS011;69766;51.476;5.704;2024-03-29T13:08:05;0.93;;;0.40;;
80425;SDS011;69766;51.476;5.704;2024-03-29T13:10:34;0.82;;;0.47;;
80425;SDS011;69766;51.476;5.704;2024-03-29T13:13:00;1.58;;;0.40;;
80425;SDS011;69766;51.476;5.704;2024-03-29T13:15:26;0.65;;;0.38;;
80425;SDS011;69766;51.476;5.704;2024-03-29T13:17:53;2.28;;;0.50;;
80425;SDS011;69766;51.476;5.704;2024-03-29T13:20:20;1.17;;;0.40;;
80425;SDS011;69766;51.476;5.704;2024-03-29T13:22:47;0.73;;;0.40;;
80425;SDS011;69766;51.476;5.704;2024-03-29T13:25:18;2.78;;;0.40;;
80425;SDS011;69766;51.476;5.704;2024-03-29T13:27:45;1.58;;;0.50;;
80425;SDS011;69766;51.476;5.704;2024-03-29T13:30:12;1.83;;;0.40;;
80425;SDS011;69766;51.476;5.704;2024-03-29T13:32:39;0.95;;;0.45;;
80425;SDS011;69766;51.476;5.704;2024-03-29T13:35:06;2.45;;;0.55;;
80425;SDS011;69766;51.476;5.704;2024-03-29T13:37:41;1.40;;;0.50;;
80425;SDS011;69766;51.476;5.704;2024-03-29T13:40:08;1.23;;;0.40;;
80425;SDS011;69766;51.476;5.704;2024-03-29T13:42:36;1.13;;;0.50;;
80425;SDS011;69766;51.476;5.704;2024-03-29T13:45:04;2.08;;;0.40;;
80425;SDS011;69766;51.476;5.704;2024-03-29T13:47:36;1.58;;;0.77;;
80425;SDS011;69766;51.476;5.704;2024-03-29T13:50:06;1.98;;;0.50;;
80425;SDS011;69766;51.476;5.704;2024-03-29T13:52:32;1.75;;;0.57;;
80425;SDS011;69766;51.476;5.704;2024-03-29T13:54:58;1.70;;;0.60;;
80425;SDS011;69766;51.476;5.704;2024-03-29T13:57:25;0.88;;;0.30;;
80425;SDS011;69766;51.476;5.704;2024-03-29T13:59:51;3.50;;;0.40;;
80425;SDS011;69766;51.476;5.704;2024-03-29T14:02:17;1.20;;;0.30;;
80425;SDS011;69766;51.476;5.704;2024-03-29T14:04:44;3.38;;;0.43;;
80425;SDS011;69766;51.476;5.704;2024-03-29T14:07:11;1.02;;;0.75;;
80425;SDS011;69766;51.476;5.704;2024-03-29T14:09:46;0.68;;;0.40;;
80425;SDS011;69766;51.476;5.704;2024-03-29T14:12:12;0.70;;;0.30;;
80425;SDS011;69766;51.476;5.704;2024-03-29T14:14:41;0.85;;;0.30;;
80425;SDS011;69766;51.476;5.704;2024-03-29T14:17:10;2.75;;;0.60;;
80425;SDS011;69766;51.476;5.704;2024-03-29T14:19:36;1.33;;;0.38;;
80425;SDS011;69766;51.476;5.704;2024-03-29T14:22:02;0.55;;;0.25;;
80425;SDS011;69766;51.476;5.704;2024-03-29T14:24:28;0.70;;;0.20;;
80425;SDS011;69766;51.476;5.704;2024-03-29T14:26:58;1.17;;;0.40;;
80425;SDS011;69766;51.476;5.704;2024-03-29T14:29:24;1.85;;;0.40;;
80425;SDS011;69766;51.476;5.704;2024-03-29T14:31:57;1.80;;;0.40;;
80425;SDS011;69766;51.476;5.704;2024-03-29T14:34:23;0.80;;;0.30;;
80425;SDS011;69766;51.476;5.704;2024-03-29T14:36:50;1.70;;;0.30;;
80425;SDS011;69766;51.476;5.704;2024-03-29T14:39:16;1.95;;;0.43;;
80425;SDS011;69766;51.476;5.704;2024-03-29T14:41:44;1.15;;;0.50;;
80425;SDS011;69766;51.476;5.704;2024-03-29T14:44:11;1.42;;;0.30;;
80425;SDS011;69766;51.476;5.704;2024-03-29T14:46:38;1.50;;;0.30;;
80425;SDS011;69766;51.476;5.704;2024-03-29T14:49:06;0.85;;;0.30;;
80425;SDS011;69766;51.476;5.704;2024-03-29T14:51:36;2.72;;;0.50;;
80425;SDS011;69766;51.476;5.704;2024-03-29T14:54:02;0.73;;;0.40;;
80425;SDS011;69766;51.476;5.704;2024-03-29T14:56:29;0.70;;;0.32;;
80425;SDS011;69766;51.476;5.704;2024-03-29T14:59:00;3.17;;;0.50;;
80425;SDS011;69766;51.476;5.704;2024-03-29T15:01:27;1.63;;;0.38;;
80425;SDS011;69766;51.476;5.704;2024-03-29T15:03:55;1.10;;;0.50;;
80425;SDS011;69766;51.476;5.704;2024-03-29T15:06:21;1.33;;;0.30;;
80425;SDS011;69766;51.476;5.704;2024-03-29T15:08:49;3.60;;;0.68;;
80425;SDS011;69766;51.476;5.704;2024-03-29T15:11:15;0.80;;;0.35;;
80425;SDS011;69766;51.476;5.704;2024-03-29T15:13:41;1.83;;;0.60;;
80425;SDS011;69766;51.476;5.704;2024-03-29T15:16:06;0.75;;;0.40;;
80425;SDS011;69766;51.476;5.704;2024-03-29T15:18:32;1.27;;;0.55;;